createdAt,value
2022-12-03T00:00:45.201Z,10.26
2022-12-03T00:02:06.808Z,10.06
2022-12-03T00:03:28.318Z,10.64
2022-12-03T00:04:52.235Z,10.50
2022-12-03T00:06:14.063Z,10.72
2022-12-03T00:07:36.349Z,10.61
2022-12-03T00:08:58.275Z,9.48
2022-12-03T00:10:19.684Z,10.34
2022-12-03T00:11:41.435Z,10.71
2022-12-03T00:13:03.249Z,10.20
2022-12-03T00:14:26.251Z,10.03
2022-12-03T00:17:08.238Z,9.01
2022-12-03T00:18:29.780Z,9.79
2022-12-03T00:19:51.647Z,9.21
2022-12-03T00:21:12.892Z,10.03
2022-12-03T00:22:35.860Z,10.24
2022-12-03T00:23:57.036Z,9.57
2022-12-03T00:25:18.732Z,9.66
2022-12-03T00:26:40.039Z,9.28
2022-12-03T00:28:01.413Z,9.06
2022-12-03T00:29:23.262Z,9.64
2022-12-03T00:30:44.873Z,10.10
2022-12-03T00:32:06.416Z,10.23
2022-12-03T00:33:27.815Z,9.59
2022-12-03T00:34:49.410Z,9.19
2022-12-03T00:36:10.690Z,10.01
2022-12-03T00:37:31.788Z,9.24
2022-12-03T00:38:53.470Z,9.32
2022-12-03T00:40:14.810Z,9.37
2022-12-03T00:41:35.814Z,9.48
2022-12-03T00:42:56.798Z,9.38
2022-12-03T00:44:18.409Z,8.66
2022-12-03T00:45:39.635Z,8.99
2022-12-03T00:47:01.334Z,8.93
2022-12-03T00:48:22.683Z,8.74
2022-12-03T00:49:44.120Z,9.69
2022-12-03T00:51:05.669Z,8.99
2022-12-03T00:52:26.919Z,9.08
2022-12-03T00:53:48.950Z,9.08
2022-12-03T00:55:10.472Z,9.51
2022-12-03T00:56:31.805Z,9.08
2022-12-03T00:57:53.360Z,9.83
2022-12-03T00:59:14.531Z,9.56
2022-12-03T01:00:36.643Z,9.19
2022-12-03T01:01:58.087Z,8.64
2022-12-03T01:03:19.960Z,8.36
2022-12-03T01:04:41.475Z,8.96
2022-12-03T01:06:03.272Z,8.39
2022-12-03T01:07:24.487Z,11.88
2022-12-03T01:08:45.824Z,15.71
2022-12-03T01:10:08.529Z,8.57
2022-12-03T01:11:29.729Z,9.93
2022-12-03T01:12:51.129Z,12.23
2022-12-03T01:14:16.466Z,10.50
2022-12-03T01:15:37.745Z,8.86
2022-12-03T01:16:59.091Z,13.19
2022-12-03T01:18:20.294Z,9.58
2022-12-03T01:19:47.894Z,9.06
2022-12-03T01:21:05.148Z,12.42
2022-12-03T01:22:26.501Z,9.95
2022-12-03T01:23:47.496Z,16.48
2022-12-03T01:25:09.451Z,14.54
2022-12-03T01:26:30.397Z,11.79
2022-12-03T01:27:51.655Z,9.03
2022-12-03T01:29:13.471Z,9.79
2022-12-03T01:30:34.448Z,8.66
2022-12-03T01:31:55.848Z,9.67
2022-12-03T01:33:17.419Z,11.79
2022-12-03T01:34:38.948Z,11.07
2022-12-03T01:36:00.491Z,9.16
2022-12-03T01:37:23.737Z,8.48
2022-12-03T01:40:06.672Z,8.79
2022-12-03T01:41:27.751Z,8.27
2022-12-03T01:42:49.007Z,10.83
2022-12-03T01:44:25.072Z,8.71
2022-12-03T01:45:46.476Z,8.50
2022-12-03T01:47:13.235Z,9.08
2022-12-03T01:48:34.879Z,9.09
2022-12-03T01:50:04.770Z,8.56
2022-12-03T01:51:26.241Z,9.32
2022-12-03T01:52:47.275Z,9.01
2022-12-03T01:54:17.207Z,7.84
2022-12-03T01:55:38.500Z,9.58
2022-12-03T01:56:59.785Z,9.93
2022-12-03T01:58:24.023Z,8.87
2022-12-03T01:59:45.553Z,8.92
2022-12-03T02:01:08.792Z,8.97
2022-12-03T02:02:30.514Z,9.87
2022-12-03T02:03:51.567Z,9.33
2022-12-03T02:05:18.322Z,9.11
2022-12-03T02:06:39.504Z,8.96
2022-12-03T02:08:00.524Z,9.22
2022-12-03T02:09:21.819Z,9.85
2022-12-03T02:10:42.985Z,9.43
2022-12-03T02:12:04.898Z,8.69
2022-12-03T02:13:27.241Z,8.81
2022-12-03T02:14:48.561Z,8.66
2022-12-03T02:16:09.969Z,8.20
2022-12-03T02:17:31.184Z,8.71
2022-12-03T02:18:52.409Z,8.97
2022-12-03T02:20:13.394Z,8.36
2022-12-03T02:21:53.214Z,9.40
2022-12-03T02:23:39.327Z,9.36
2022-12-03T02:25:07.308Z,8.30
2022-12-03T02:26:28.636Z,9.08
2022-12-03T02:27:49.831Z,8.80
2022-12-03T02:29:11.140Z,8.45
2022-12-03T02:30:32.765Z,8.74
2022-12-03T02:31:54.179Z,8.84
2022-12-03T02:33:15.622Z,8.33
2022-12-03T02:34:42.065Z,8.67
2022-12-03T02:36:04.270Z,10.89
2022-12-03T02:37:28.608Z,7.25
2022-12-03T02:38:49.767Z,9.47
2022-12-03T02:40:17.489Z,9.19
2022-12-03T02:41:38.489Z,9.12
2022-12-03T02:43:00.821Z,9.26
2022-12-03T02:44:22.158Z,9.23
2022-12-03T02:45:48.413Z,13.51
2022-12-03T02:47:09.505Z,13.92
2022-12-03T02:48:33.114Z,10.64
2022-12-03T02:49:56.223Z,9.42
2022-12-03T02:51:17.177Z,10.69
2022-12-03T02:52:39.107Z,12.32
2022-12-03T02:54:00.208Z,9.33
2022-12-03T02:55:21.584Z,10.94
2022-12-03T02:56:42.835Z,19.91
2022-12-03T02:58:03.891Z,10.64
2022-12-03T02:59:25.291Z,14.18
2022-12-03T03:00:46.820Z,19.72
2022-12-03T03:02:08.251Z,9.76
2022-12-03T03:03:29.561Z,9.17
2022-12-03T03:04:50.758Z,9.26
2022-12-03T03:06:11.966Z,10.58
2022-12-03T03:07:33.278Z,10.16
2022-12-03T03:08:54.505Z,9.83
2022-12-03T03:10:16.938Z,10.53
2022-12-03T03:11:38.192Z,7.30
2022-12-03T03:12:59.566Z,10.22
2022-12-03T03:14:21.067Z,9.99
2022-12-03T03:15:41.987Z,9.90
2022-12-03T03:17:03.553Z,9.95
2022-12-03T03:18:24.719Z,9.62
2022-12-03T03:19:46.147Z,9.66
2022-12-03T03:21:07.455Z,10.58
2022-12-03T03:22:39.259Z,9.54
2022-12-03T03:24:00.349Z,10.37
2022-12-03T03:25:21.786Z,10.31
2022-12-03T03:26:43.144Z,10.52
2022-12-03T03:28:04.625Z,9.98
2022-12-03T03:29:25.817Z,10.29
2022-12-03T03:30:47.326Z,10.31
2022-12-03T03:32:08.816Z,11.17
2022-12-03T03:33:30.257Z,10.27
2022-12-03T03:34:51.935Z,10.13
2022-12-03T03:36:13.640Z,9.90
2022-12-03T03:37:35.066Z,11.02
2022-12-03T03:38:56.552Z,10.77
2022-12-03T03:40:18.003Z,10.30
2022-12-03T03:41:39.065Z,10.51
2022-12-03T03:43:00.235Z,10.81
2022-12-03T03:44:24.659Z,10.35
2022-12-03T03:45:50.914Z,10.33
2022-12-03T03:47:12.277Z,9.98
2022-12-03T03:48:33.694Z,10.17
2022-12-03T03:49:54.883Z,10.11
2022-12-03T03:51:16.484Z,11.52
2022-12-03T03:52:37.839Z,11.43
2022-12-03T03:53:58.752Z,10.92
2022-12-03T03:55:20.280Z,11.01
2022-12-03T03:57:51.485Z,12.07
2022-12-03T03:59:13.115Z,11.47
2022-12-03T04:00:35.450Z,11.29
2022-12-03T04:01:57.021Z,12.37
2022-12-03T04:03:18.535Z,10.87
2022-12-03T04:04:40.032Z,12.29
2022-12-03T04:06:01.108Z,13.43
2022-12-03T04:07:22.443Z,12.52
2022-12-03T04:08:44.173Z,12.70
2022-12-03T04:10:06.428Z,13.17
2022-12-03T04:11:27.767Z,11.41
2022-12-03T04:12:48.788Z,11.28
2022-12-03T04:14:10.391Z,10.83
2022-12-03T04:15:31.742Z,11.21
2022-12-03T04:16:53.573Z,11.63
2022-12-03T04:18:14.750Z,11.02
2022-12-03T04:19:36.091Z,11.82
2022-12-03T04:20:57.706Z,11.14
2022-12-03T04:22:18.801Z,12.12
2022-12-03T04:23:40.197Z,11.18
2022-12-03T04:25:05.582Z,11.24
2022-12-03T04:26:27.053Z,13.43
2022-12-03T04:27:49.630Z,12.63
2022-12-03T04:29:11.404Z,13.03
2022-12-03T04:30:32.606Z,12.83
2022-12-03T04:31:53.970Z,16.56
2022-12-03T04:33:15.470Z,29.08
2022-12-03T04:34:37.101Z,20.02
2022-12-03T04:35:58.541Z,12.79
2022-12-03T04:37:19.862Z,13.96
2022-12-03T04:38:41.546Z,14.23
2022-12-03T04:40:03.254Z,12.07
2022-12-03T04:41:24.707Z,14.71
2022-12-03T04:42:49.081Z,12.05
2022-12-03T04:44:10.355Z,11.35
2022-12-03T04:45:31.861Z,15.58
2022-12-03T04:46:53.319Z,33.81
2022-12-03T04:48:14.585Z,26.31
2022-12-03T04:49:38.173Z,13.67
2022-12-03T04:50:59.163Z,13.27
2022-12-03T04:52:23.256Z,11.51
2022-12-03T04:53:46.331Z,11.58
2022-12-03T04:55:08.191Z,11.02
2022-12-03T04:56:29.462Z,11.81
2022-12-03T04:57:50.602Z,10.94
2022-12-03T04:59:16.033Z,11.10
2022-12-03T05:00:35.327Z,11.62
2022-12-03T05:01:56.501Z,11.29
2022-12-03T05:03:17.927Z,13.91
2022-12-03T05:04:41.652Z,13.42
2022-12-03T05:06:03.338Z,13.04
2022-12-03T05:07:26.988Z,13.08
2022-12-03T05:08:48.287Z,17.14
2022-12-03T05:10:10.143Z,19.66
2022-12-03T05:11:31.486Z,12.79
2022-12-03T05:12:53.973Z,11.33
2022-12-03T05:14:17.233Z,13.93
2022-12-03T05:15:38.853Z,11.57
2022-12-03T05:17:00.272Z,10.48
2022-12-03T05:18:23.632Z,10.57
2022-12-03T05:19:44.676Z,10.35
2022-12-03T05:21:06.168Z,10.78
2022-12-03T05:23:44.705Z,9.74
2022-12-03T05:25:06.633Z,11.58
2022-12-03T05:26:29.985Z,11.72
2022-12-03T05:27:52.825Z,11.18
2022-12-03T05:29:14.018Z,12.28
2022-12-03T05:30:35.578Z,11.51
2022-12-03T05:31:56.798Z,12.83
2022-12-03T05:33:20.847Z,13.31
2022-12-03T05:34:42.421Z,14.57
2022-12-03T05:36:04.088Z,14.32
2022-12-03T05:37:25.555Z,12.92
2022-12-03T05:38:46.734Z,18.78
2022-12-03T05:40:09.070Z,24.97
2022-12-03T05:41:32.421Z,27.75
2022-12-03T05:42:53.658Z,22.98
2022-12-03T05:44:20.149Z,20.52
2022-12-03T05:45:39.643Z,19.77
2022-12-03T05:47:01.116Z,27.88
2022-12-03T05:48:25.694Z,19.97
2022-12-03T05:49:47.094Z,19.75
2022-12-03T05:51:09.371Z,18.65
2022-12-03T05:52:31.000Z,28.67
2022-12-03T05:53:52.442Z,20.76
2022-12-03T05:55:13.932Z,16.44
2022-12-03T05:56:35.216Z,24.32
2022-12-03T05:57:56.472Z,21.87
2022-12-03T05:59:17.636Z,26.09
2022-12-03T06:00:42.764Z,20.30
2022-12-03T06:02:02.221Z,20.83
2022-12-03T06:03:23.947Z,15.38
2022-12-03T06:04:45.242Z,17.31
2022-12-03T06:06:06.909Z,16.98
2022-12-03T06:07:28.100Z,16.51
2022-12-03T06:08:52.394Z,18.18
2022-12-03T06:10:16.685Z,11.82
2022-12-03T06:11:38.060Z,14.39
2022-12-03T06:12:59.378Z,14.23
2022-12-03T06:14:21.302Z,15.81
2022-12-03T06:15:44.172Z,15.30
2022-12-03T06:17:05.415Z,17.13
2022-12-03T06:18:27.009Z,16.63
2022-12-03T06:19:50.352Z,18.18
2022-12-03T06:21:11.973Z,16.28
2022-12-03T06:22:35.541Z,14.73
2022-12-03T06:23:57.976Z,19.18
2022-12-03T06:25:19.506Z,15.70
2022-12-03T06:26:41.124Z,15.96
2022-12-03T06:28:02.694Z,15.32
2022-12-03T06:29:24.412Z,14.00
2022-12-03T06:30:47.101Z,18.06
2022-12-03T06:32:08.986Z,24.03
2022-12-03T06:33:33.562Z,18.18
2022-12-03T06:34:56.333Z,19.06
2022-12-03T06:36:22.831Z,18.57
2022-12-03T06:37:43.247Z,19.97
2022-12-03T06:39:04.720Z,15.96
2022-12-03T06:40:26.235Z,14.50
2022-12-03T06:41:48.997Z,14.34
2022-12-03T06:43:11.126Z,13.33
2022-12-03T06:44:33.903Z,13.38
2022-12-03T06:45:55.697Z,16.24
2022-12-03T06:47:17.090Z,13.74
2022-12-03T06:48:38.509Z,18.47
2022-12-03T06:50:04.019Z,16.36
2022-12-03T06:51:32.591Z,29.88
2022-12-03T06:52:55.327Z,15.91
2022-12-03T06:54:16.368Z,20.69
2022-12-03T06:55:37.813Z,25.83
2022-12-03T06:56:59.483Z,25.17
2022-12-03T06:58:22.455Z,17.27
2022-12-03T06:59:45.315Z,14.29
2022-12-03T07:01:06.752Z,15.60
2022-12-03T07:02:28.483Z,15.50
2022-12-03T07:03:50.991Z,18.29
2022-12-03T07:05:15.407Z,18.83
2022-12-03T07:06:37.183Z,26.74
2022-12-03T07:07:58.214Z,23.83
2022-12-03T07:09:19.731Z,46.58
2022-12-03T07:10:41.543Z,33.79
2022-12-03T07:12:04.937Z,16.95
2022-12-03T07:13:26.058Z,15.19
2022-12-03T07:14:49.162Z,16.45
2022-12-03T07:16:10.505Z,28.34
2022-12-03T07:17:31.984Z,37.56
2022-12-03T07:18:52.996Z,24.69
2022-12-03T07:20:14.566Z,18.35
2022-12-03T07:21:37.964Z,21.93
2022-12-03T07:22:59.013Z,25.87
2022-12-03T07:24:21.343Z,30.82
2022-12-03T07:25:42.540Z,22.76
2022-12-03T07:27:04.068Z,21.24
2022-12-03T07:28:25.646Z,18.48
2022-12-03T07:29:46.970Z,22.12
2022-12-03T07:31:08.504Z,20.21
2022-12-03T07:32:31.586Z,32.21
2022-12-03T07:33:54.736Z,24.68
2022-12-03T07:35:17.165Z,34.92
2022-12-03T07:36:38.556Z,20.93
2022-12-03T07:38:00.729Z,15.54
2022-12-03T07:39:22.217Z,15.32
2022-12-03T07:40:46.864Z,15.07
2022-12-03T07:42:08.310Z,13.53
2022-12-03T07:43:29.830Z,14.93
2022-12-03T07:44:52.586Z,13.20
2022-12-03T07:46:13.911Z,14.59
2022-12-03T07:47:36.540Z,14.94
2022-12-03T07:49:00.740Z,16.23
2022-12-03T07:50:21.767Z,15.02
2022-12-03T07:51:43.305Z,13.52
2022-12-03T07:53:05.476Z,14.22
2022-12-03T07:54:27.075Z,15.49
2022-12-03T07:55:49.504Z,14.86
2022-12-03T07:57:10.791Z,14.16
2022-12-03T07:58:33.346Z,13.46
2022-12-03T07:59:54.725Z,14.34
2022-12-03T08:01:16.146Z,13.93
2022-12-03T08:02:41.412Z,12.74
2022-12-03T08:04:04.190Z,14.44
2022-12-03T08:05:25.375Z,14.53
2022-12-03T08:06:52.415Z,14.68
2022-12-03T08:08:16.856Z,12.98
2022-12-03T08:09:39.617Z,30.41
2022-12-03T08:11:05.855Z,25.87
2022-12-03T08:12:29.096Z,19.37
2022-12-03T08:13:50.557Z,26.61
2022-12-03T08:16:35.760Z,17.39
2022-12-03T08:17:59.443Z,15.49
2022-12-03T08:19:20.625Z,12.51
2022-12-03T08:20:42.734Z,12.91
2022-12-03T08:22:14.400Z,12.11
2022-12-03T08:23:35.577Z,13.56
2022-12-03T08:25:07.960Z,11.85
2022-12-03T08:26:29.819Z,11.41
2022-12-03T08:27:51.530Z,11.11
2022-12-03T08:29:18.142Z,10.74
2022-12-03T08:30:40.628Z,10.35
2022-12-03T08:32:01.796Z,10.06
2022-12-03T08:33:26.852Z,10.39
2022-12-03T08:34:48.691Z,10.11
2022-12-03T08:36:21.886Z,11.46
2022-12-03T08:37:42.994Z,12.32
2022-12-03T08:39:30.983Z,11.46
2022-12-03T08:40:52.349Z,12.87
2022-12-03T08:42:18.224Z,14.92
2022-12-03T08:43:39.435Z,15.55
2022-12-03T08:45:30.242Z,14.07
2022-12-03T08:47:12.032Z,12.37
2022-12-03T08:49:58.691Z,13.38
2022-12-03T08:51:23.872Z,13.92
2022-12-03T08:52:45.203Z,13.41
2022-12-03T08:54:15.158Z,13.55
2022-12-03T08:55:47.029Z,15.03
2022-12-03T08:57:27.834Z,20.36
2022-12-03T08:59:00.320Z,25.25
2022-12-03T09:00:24.595Z,22.39
2022-12-03T09:01:46.178Z,14.42
2022-12-03T09:03:10.553Z,11.12
2022-12-03T09:04:44.108Z,11.51
2022-12-03T09:07:27.952Z,10.51
2022-12-03T09:08:49.113Z,11.59
2022-12-03T09:10:11.506Z,11.72
2022-12-03T09:11:33.227Z,11.26
2022-12-03T09:12:55.749Z,14.69
2022-12-03T09:14:18.993Z,17.78
2022-12-03T09:15:40.335Z,15.94
2022-12-03T09:17:01.561Z,16.81
2022-12-03T09:18:23.771Z,23.10
2022-12-03T09:19:46.416Z,21.24
2022-12-03T09:21:08.110Z,19.58
2022-12-03T09:22:29.467Z,14.23
2022-12-03T09:23:51.257Z,14.54
2022-12-03T09:25:13.070Z,15.00
2022-12-03T09:26:34.844Z,15.91
2022-12-03T09:27:56.418Z,17.11
2022-12-03T09:29:17.673Z,18.42
2022-12-03T09:30:40.080Z,13.08
2022-12-03T09:32:01.424Z,14.46
2022-12-03T09:33:22.839Z,14.94
2022-12-03T09:34:45.796Z,14.88
2022-12-03T09:37:28.429Z,14.10
2022-12-03T09:38:50.377Z,12.46
2022-12-03T09:40:13.259Z,12.14
2022-12-03T09:41:34.733Z,13.65
2022-12-03T09:42:56.492Z,12.52
2022-12-03T09:44:18.662Z,13.34
2022-12-03T09:45:40.180Z,12.89
2022-12-03T09:47:01.662Z,13.40
2022-12-03T09:49:45.730Z,11.66
2022-12-03T09:51:08.705Z,12.50
2022-12-03T09:53:51.605Z,13.32
2022-12-03T09:55:18.186Z,12.61
2022-12-03T09:56:40.154Z,14.64
2022-12-03T09:58:06.609Z,13.41
2022-12-03T10:00:50.407Z,11.96
2022-12-03T10:03:36.097Z,19.51
2022-12-03T10:04:59.485Z,18.85
2022-12-03T10:06:22.697Z,16.47
2022-12-03T10:07:46.869Z,14.73
2022-12-03T10:09:09.351Z,13.94
2022-12-03T10:11:57.296Z,12.42
2022-12-03T10:14:44.209Z,13.61
2022-12-03T10:16:07.739Z,13.38
2022-12-03T10:17:29.757Z,12.98
2022-12-03T10:18:54.182Z,13.62
2022-12-03T10:20:16.928Z,13.48
2022-12-03T10:21:38.600Z,13.12
2022-12-03T10:22:59.797Z,14.03
2022-12-03T10:24:28.281Z,13.69
2022-12-03T10:25:58.376Z,15.76
2022-12-03T10:27:21.863Z,21.03
2022-12-03T10:28:44.476Z,17.91
2022-12-03T10:31:41.777Z,12.81
2022-12-03T10:33:07.201Z,18.44
2022-12-03T10:37:35.842Z,16.13
2022-12-03T10:39:06.989Z,16.21
2022-12-03T10:40:33.381Z,24.18
2022-12-03T10:42:01.011Z,15.25
2022-12-03T10:43:24.460Z,17.14
2022-12-03T10:44:45.434Z,15.38
2022-12-03T10:46:11.403Z,15.86
2022-12-03T10:47:33.107Z,18.04
2022-12-03T10:49:09.036Z,18.64
2022-12-03T10:50:31.356Z,22.20
2022-12-03T10:51:53.767Z,17.66
2022-12-03T10:53:16.018Z,14.92
2022-12-03T10:54:37.156Z,15.79
2022-12-03T10:55:58.937Z,16.00
2022-12-03T10:57:20.249Z,16.92
2022-12-03T10:58:41.996Z,15.67
2022-12-03T11:00:05.428Z,15.86
2022-12-03T11:01:26.520Z,14.48
2022-12-03T11:02:53.346Z,15.30
2022-12-03T11:04:30.937Z,15.66
2022-12-03T11:05:53.695Z,15.47
2022-12-03T11:07:15.647Z,15.78
2022-12-03T11:08:36.790Z,16.21
2022-12-03T11:09:58.050Z,15.14
2022-12-03T11:11:26.601Z,14.31
2022-12-03T11:13:24.877Z,14.28
2022-12-03T11:14:53.151Z,14.25
2022-12-03T11:16:16.684Z,15.69
2022-12-03T11:17:48.695Z,15.09
2022-12-03T11:19:15.167Z,48.05
2022-12-03T11:20:49.248Z,23.71
2022-12-03T11:22:14.551Z,17.96
2022-12-03T11:23:48.160Z,15.18
2022-12-03T11:26:43.172Z,15.64
2022-12-03T11:28:20.391Z,15.51
2022-12-03T11:29:55.850Z,17.74
2022-12-03T11:31:37.302Z,16.27
2022-12-03T11:32:59.658Z,15.36
2022-12-03T11:34:27.412Z,14.87
2022-12-03T11:37:16.969Z,16.23
2022-12-03T11:38:50.743Z,15.99
2022-12-03T11:40:22.106Z,16.15
2022-12-03T11:41:49.287Z,19.46
2022-12-03T11:43:10.485Z,21.09
2022-12-03T11:44:31.981Z,21.14
2022-12-03T11:46:01.034Z,18.83
2022-12-03T11:47:19.035Z,20.51
2022-12-03T11:48:44.140Z,19.04
2022-12-03T11:50:21.110Z,19.19
2022-12-03T11:51:42.867Z,19.45
2022-12-03T11:53:13.845Z,15.47
2022-12-03T11:54:35.252Z,16.47
2022-12-03T11:56:04.831Z,15.86
2022-12-03T11:57:31.904Z,15.89
2022-12-03T11:59:00.288Z,14.42
2022-12-03T12:00:22.902Z,14.34
2022-12-03T12:01:44.312Z,14.55
2022-12-03T12:03:06.767Z,14.92
2022-12-03T12:04:35.630Z,14.19
2022-12-03T12:06:11.584Z,13.79
2022-12-03T12:07:34.632Z,17.37
2022-12-03T12:11:50.681Z,16.30
2022-12-03T12:13:33.821Z,14.21
2022-12-03T12:14:55.884Z,15.57
2022-12-03T12:16:36.610Z,14.29
2022-12-03T12:18:18.205Z,14.64
2022-12-03T12:19:42.135Z,14.52
2022-12-03T12:21:40.265Z,12.53
2022-12-03T12:23:05.778Z,13.54
2022-12-03T12:24:42.863Z,13.44
2022-12-03T12:26:05.977Z,14.92
2022-12-03T12:27:38.677Z,12.99
2022-12-03T12:29:00.107Z,15.67
2022-12-03T12:30:22.286Z,13.17
2022-12-03T12:31:43.729Z,14.10
2022-12-03T12:33:20.157Z,24.48
2022-12-03T12:34:48.329Z,20.34
2022-12-03T12:36:10.271Z,19.43
2022-12-03T12:37:35.888Z,15.82
2022-12-03T12:38:58.469Z,24.35
2022-12-03T12:40:22.710Z,25.69
2022-12-03T12:41:47.487Z,13.77
2022-12-03T12:43:19.008Z,13.76
2022-12-03T12:44:38.850Z,14.09
2022-12-03T12:46:09.473Z,14.38
2022-12-03T12:47:24.538Z,13.77
2022-12-03T12:48:45.888Z,15.01
2022-12-03T12:50:10.994Z,16.17
2022-12-03T12:51:32.076Z,19.30
2022-12-03T12:52:57.118Z,15.12
2022-12-03T12:54:18.204Z,15.22
2022-12-03T12:55:40.770Z,15.19
2022-12-03T12:57:02.061Z,15.63
2022-12-03T12:58:23.411Z,16.14
2022-12-03T12:59:44.515Z,16.72
2022-12-03T13:01:07.141Z,16.70
2022-12-03T13:02:42.475Z,16.38
2022-12-03T13:04:12.164Z,16.38
2022-12-03T13:05:37.197Z,15.05
2022-12-03T13:06:58.747Z,13.87
2022-12-03T13:08:26.269Z,14.91
2022-12-03T13:09:47.457Z,16.06
2022-12-03T13:11:35.567Z,15.59
2022-12-03T13:12:56.893Z,14.11
2022-12-03T13:14:20.344Z,14.94
2022-12-03T13:15:53.166Z,15.38
2022-12-03T13:17:20.486Z,15.00
2022-12-03T13:18:47.549Z,14.44
2022-12-03T13:20:14.754Z,14.13
2022-12-03T13:21:42.094Z,14.01
2022-12-03T13:23:07.279Z,15.28
2022-12-03T13:24:42.973Z,37.69
2022-12-03T13:27:21.486Z,17.15
2022-12-03T13:28:43.971Z,16.39
2022-12-03T13:31:28.970Z,15.88
2022-12-03T13:32:50.197Z,15.79
2022-12-03T13:35:36.410Z,16.43
2022-12-03T13:36:59.145Z,15.08
2022-12-03T13:38:20.577Z,14.79
2022-12-03T13:40:59.328Z,16.08
2022-12-03T13:42:23.281Z,15.81
2022-12-03T13:43:44.819Z,14.42
2022-12-03T13:45:19.646Z,14.94
2022-12-03T13:46:41.902Z,16.08
2022-12-03T13:48:07.300Z,15.69
2022-12-03T13:49:28.487Z,15.61
2022-12-03T13:50:52.155Z,15.49
2022-12-03T13:52:15.650Z,16.33
2022-12-03T13:53:37.001Z,30.77
2022-12-03T13:54:58.486Z,34.79
2022-12-03T13:56:28.550Z,28.01
2022-12-03T13:57:49.515Z,18.00
2022-12-03T13:59:11.848Z,26.23
2022-12-03T14:00:33.206Z,31.46
2022-12-03T14:01:54.547Z,16.05
2022-12-03T14:03:16.152Z,16.57
2022-12-03T14:04:38.260Z,23.95
2022-12-03T14:05:59.574Z,17.03
2022-12-03T14:07:21.024Z,21.80
2022-12-03T14:08:42.601Z,17.96
2022-12-03T14:11:15.817Z,17.66
2022-12-03T14:12:37.646Z,17.00
2022-12-03T14:14:00.459Z,21.17
2022-12-03T14:15:21.784Z,26.92
2022-12-03T14:16:45.110Z,20.63
2022-12-03T14:19:27.537Z,15.53
2022-12-03T14:20:49.291Z,15.92
2022-12-03T14:22:10.498Z,16.32
2022-12-03T14:23:31.856Z,16.70
2022-12-03T14:24:54.126Z,15.54
2022-12-03T14:26:15.706Z,13.82
2022-12-03T14:27:37.588Z,14.67
2022-12-03T14:28:59.145Z,19.39
2022-12-03T14:30:20.792Z,16.02
2022-12-03T14:31:42.329Z,14.94
2022-12-03T14:33:03.744Z,16.42
2022-12-03T14:34:25.429Z,18.58
2022-12-03T14:35:46.893Z,14.97
2022-12-03T14:37:08.465Z,18.16
2022-12-03T14:38:30.128Z,15.49
2022-12-03T14:39:51.551Z,16.42
2022-12-03T14:41:13.585Z,16.37
2022-12-03T14:42:35.481Z,14.51
2022-12-03T14:43:57.217Z,24.83
2022-12-03T14:45:19.889Z,18.02
2022-12-03T14:46:41.351Z,17.95
2022-12-03T14:48:02.898Z,26.09
2022-12-03T14:49:24.192Z,13.91
2022-12-03T14:50:47.623Z,14.18
2022-12-03T14:52:12.201Z,14.76
2022-12-03T14:53:31.976Z,13.30
2022-12-03T14:54:53.752Z,15.51
2022-12-03T14:56:15.215Z,14.92
2022-12-03T14:57:36.482Z,13.87
2022-12-03T14:58:58.171Z,15.04
2022-12-03T15:00:20.519Z,14.01
2022-12-03T15:01:41.654Z,13.22
2022-12-03T15:03:03.061Z,16.96
2022-12-03T15:04:24.698Z,13.68
2022-12-03T15:05:45.745Z,13.84
2022-12-03T15:07:07.556Z,11.62
2022-12-03T15:08:28.743Z,11.36
2022-12-03T15:09:50.176Z,11.46
2022-12-03T15:11:11.605Z,11.64
2022-12-03T15:12:33.717Z,11.61
2022-12-03T15:13:58.674Z,14.37
2022-12-03T15:15:21.933Z,12.02
2022-12-03T15:18:07.672Z,8.92
2022-12-03T15:19:30.252Z,9.79
2022-12-03T15:20:51.339Z,9.52
2022-12-03T15:22:12.813Z,10.37
2022-12-03T15:23:34.312Z,9.47
2022-12-03T15:24:55.690Z,13.19
2022-12-03T15:26:16.808Z,11.63
2022-12-03T15:27:37.947Z,10.71
2022-12-03T15:29:00.143Z,9.65
2022-12-03T15:30:24.720Z,10.34
2022-12-03T15:31:47.400Z,10.66
2022-12-03T15:34:29.976Z,10.06
2022-12-03T15:35:51.356Z,10.90
2022-12-03T15:37:12.506Z,10.72
2022-12-03T15:38:34.564Z,11.38
2022-12-03T15:39:56.243Z,14.13
2022-12-03T15:41:17.675Z,11.06
2022-12-03T15:42:39.016Z,12.12
2022-12-03T15:44:02.770Z,12.39
2022-12-03T15:45:24.452Z,12.86
2022-12-03T15:46:46.082Z,12.00
2022-12-03T15:48:07.603Z,10.83
2022-12-03T15:49:35.554Z,10.80
2022-12-03T15:50:59.541Z,11.08
2022-12-03T15:52:20.932Z,11.44
2022-12-03T15:53:42.390Z,11.59
2022-12-03T15:55:04.561Z,11.78
2022-12-03T15:56:26.289Z,10.48
2022-12-03T15:57:47.912Z,10.36
2022-12-03T15:59:09.355Z,11.04
2022-12-03T16:00:30.595Z,12.21
2022-12-03T16:01:52.072Z,12.11
2022-12-03T16:03:13.527Z,11.16
2022-12-03T16:04:35.376Z,10.97
2022-12-03T16:05:56.689Z,11.57
2022-12-03T16:07:18.115Z,11.12
2022-12-03T16:08:39.266Z,10.08
2022-12-03T16:10:00.319Z,10.53
2022-12-03T16:11:21.974Z,9.39
2022-12-03T16:12:43.394Z,9.94
2022-12-03T16:14:04.889Z,10.88
2022-12-03T16:15:27.442Z,9.96
2022-12-03T16:16:51.544Z,8.83
2022-12-03T16:18:13.120Z,9.92
2022-12-03T16:19:35.412Z,9.64
2022-12-03T16:20:56.794Z,9.96
2022-12-03T16:22:18.037Z,12.04
2022-12-03T16:23:39.697Z,19.44
2022-12-03T16:25:01.038Z,11.41
2022-12-03T16:26:22.768Z,14.23
2022-12-03T16:27:46.605Z,18.43
2022-12-03T16:29:08.870Z,12.27
2022-12-03T16:30:30.471Z,11.86
2022-12-03T16:31:52.893Z,12.96
2022-12-03T16:33:14.176Z,9.24
2022-12-03T16:34:35.939Z,9.77
2022-12-03T16:35:59.547Z,10.46
2022-12-03T16:37:22.085Z,9.98
2022-12-03T16:38:43.231Z,12.14
2022-12-03T16:40:06.305Z,9.82
2022-12-03T16:41:27.649Z,14.01
2022-12-03T16:42:51.396Z,11.39
2022-12-03T16:44:12.604Z,10.78
2022-12-03T16:45:36.299Z,16.31
2022-12-03T16:46:59.081Z,12.47
2022-12-03T16:48:20.262Z,17.46
2022-12-03T16:49:41.648Z,13.67
2022-12-03T16:51:03.960Z,10.39
2022-12-03T16:52:25.264Z,21.12
2022-12-03T16:53:47.001Z,16.47
2022-12-03T16:55:08.925Z,16.75
2022-12-03T16:56:31.325Z,17.49
2022-12-03T16:57:52.735Z,13.18
2022-12-03T16:59:13.991Z,11.49
2022-12-03T17:00:35.349Z,14.84
2022-12-03T17:01:56.520Z,10.94
2022-12-03T17:03:18.023Z,9.60
2022-12-03T17:04:41.084Z,9.22
2022-12-03T17:06:02.457Z,9.32
2022-12-03T17:07:23.755Z,8.66
2022-12-03T17:08:49.369Z,10.91
2022-12-03T17:10:09.364Z,9.32
2022-12-03T17:11:30.385Z,10.31
2022-12-03T17:15:39.187Z,8.31
2022-12-03T17:17:00.797Z,8.84
2022-12-03T17:18:22.048Z,9.41
2022-12-03T17:19:43.374Z,9.84
2022-12-03T17:21:06.707Z,12.68
2022-12-03T17:22:28.194Z,12.33
2022-12-03T17:23:49.682Z,13.81
2022-12-03T17:25:11.920Z,14.83
2022-12-03T17:26:34.162Z,15.44
2022-12-03T17:27:55.507Z,9.48
2022-12-03T17:29:16.572Z,10.83
2022-12-03T17:30:40.077Z,11.80
2022-12-03T17:32:01.760Z,14.98
2022-12-03T17:33:23.138Z,14.84
2022-12-03T17:34:44.447Z,14.21
2022-12-03T17:36:06.688Z,17.83
2022-12-03T17:37:27.547Z,18.88
2022-12-03T17:38:48.680Z,9.41
2022-12-03T17:40:13.471Z,13.38
2022-12-03T17:41:34.568Z,9.09
2022-12-03T17:42:55.923Z,12.44
2022-12-03T17:44:21.005Z,11.81
2022-12-03T17:47:02.106Z,7.01
2022-12-03T17:48:23.121Z,7.92
2022-12-03T17:49:44.447Z,7.77
2022-12-03T17:51:05.648Z,8.68
2022-12-03T17:52:27.145Z,8.44
2022-12-03T17:53:48.685Z,8.73
2022-12-03T17:55:22.269Z,8.42
2022-12-03T17:56:37.001Z,8.53
2022-12-03T17:57:58.107Z,8.65
2022-12-03T17:59:19.411Z,9.66
2022-12-03T18:00:41.005Z,8.85
2022-12-03T18:02:02.273Z,9.60
2022-12-03T18:03:32.123Z,8.27
2022-12-03T18:04:53.464Z,8.94
2022-12-03T18:06:14.873Z,8.61
2022-12-03T18:07:36.181Z,8.97
2022-12-03T18:09:10.894Z,9.38
2022-12-03T18:10:32.335Z,8.87
2022-12-03T18:11:53.297Z,9.36
2022-12-03T18:13:21.548Z,9.11
2022-12-03T18:14:49.909Z,8.29
2022-12-03T18:16:11.238Z,8.98
2022-12-03T18:17:39.197Z,8.91
2022-12-03T18:19:06.878Z,8.84
2022-12-03T18:20:29.676Z,8.23
2022-12-03T18:21:50.908Z,8.88
2022-12-03T18:23:12.275Z,9.62
2022-12-03T18:24:50.281Z,9.54
2022-12-03T18:26:11.196Z,8.44
2022-12-03T18:27:32.450Z,8.27
2022-12-03T18:28:53.901Z,7.17
2022-12-03T18:30:21.992Z,7.22
2022-12-03T18:31:43.436Z,7.28
2022-12-03T18:33:04.778Z,8.21
2022-12-03T18:34:26.729Z,7.08
2022-12-03T18:35:54.779Z,7.37
2022-12-03T18:37:16.157Z,7.93
2022-12-03T18:38:37.133Z,8.66
2022-12-03T18:40:12.800Z,19.10
2022-12-03T18:41:36.418Z,12.86
2022-12-03T18:42:57.335Z,16.36
2022-12-03T18:44:19.599Z,16.52